Time;durP1;ratioP1;P1;durP2;ratioP2;P2;SDS_P1;SDS_P2;PMS_P1;PMS_P2;Temp;Humidity;BMP_temperature;BMP_pressure;BME280_temperature;BME280_humidity;BME280_pressure;Samples;Min_cycle;Max_cycle;Signal;HPM_P1;HPM_P2
2022/09/09 00:01:09;;;;;;;30.77;6.15;;;;;;;;;;4990397;28;20065;-58
2022/09/09 00:03:42;;;;;;;30.65;5.40;;;;;;;;;;4977434;28;20038;-57
2022/09/09 00:06:24;;;;;;;32.97;5.75;;;;;;;;;;4973708;28;20104;-57
2022/09/09 00:08:51;;;;;;;37.33;6.68;;;;;;;;;;4972903;28;20042;-56
2022/09/09 00:11:20;;;;;;;34.08;6.18;;;;;;;;;;4966542;28;20039;-50
2022/09/09 00:13:49;;;;;;;51.17;6.70;;;;;;;;;;4973794;28;20576;-56
2022/09/09 00:16:33;;;;;;;53.85;6.95;;;;;;;;;;4982474;28;20080;-58
2022/09/09 00:19:20;;;;;;;38.50;6.30;;;;;;;;;;4969428;28;20030;-59
2022/09/09 00:22:05;;;;;;;58.80;7.07;;;;;;;;;;4976011;28;20366;-56
2022/09/09 00:24:35;;;;;;;43.30;6.25;;;;;;;;;;4975896;28;20518;-58
2022/09/09 00:27:07;;;;;;;36.35;6.25;;;;;;;;;;4969302;28;20050;-54
2022/09/09 00:29:41;;;;;;;41.42;6.80;;;;;;;;;;4975795;28;20102;-54
2022/09/09 00:32:15;;;;;;;33.45;6.80;;;;;;;;;;4974979;28;20038;-59
2022/09/09 00:34:51;;;;;;;61.20;7.80;;;;;;;;;;4973353;28;20042;-58
2022/09/09 00:37:19;;;;;;;45.35;7.65;;;;;;;;;;4972313;28;20031;-58
2022/09/09 00:39:51;;;;;;;46.33;7.82;;;;;;;;;;4973649;28;20564;-56
2022/09/09 00:42:25;;;;;;;39.45;9.23;;;;;;;;;;4975402;28;20034;-58
2022/09/09 00:44:53;;;;;;;49.30;10.75;;;;;;;;;;4975495;28;20062;-58
2022/09/09 00:47:20;;;;;;;44.45;10.85;;;;;;;;;;4972844;28;20085;-56
2022/09/09 00:50:16;;;;;;;53.30;12.75;;;;;;;;;;4974338;28;20070;-58
2022/09/09 00:53:00;;;;;;;65.63;13.02;;;;;;;;;;4937226;28;20102;-59
2022/09/09 00:55:33;;;;;;;52.13;12.25;;;;;;;;;;4975247;28;20425;-60
2022/09/09 00:58:00;;;;;;;59.35;12.95;;;;;;;;;;4971956;28;20027;-60
2022/09/09 01:00:32;;;;;;;52.88;13.60;;;;;;;;;;4975537;28;20026;-60
2022/09/09 01:02:59;;;;;;;58.63;15.02;;;;;;;;;;4963935;28;20039;-60
2022/09/09 01:05:29;;;;;;;71.60;15.43;;;;;;;;;;4973571;28;20035;-60
2022/09/09 01:07:58;;;;;;;64.63;15.48;;;;;;;;;;4956171;28;20492;-62
2022/09/09 01:10:38;;;;;;;85.38;17.25;;;;;;;;;;4974379;28;20389;-60
2022/09/09 01:13:10;;;;;;;75.07;15.95;;;;;;;;;;4975134;28;20026;-64
2022/09/09 01:15:39;;;;;;;74.97;16.08;;;;;;;;;;4974672;28;20041;-61
2022/09/09 01:18:07;;;;;;;80.35;17.10;;;;;;;;;;4973986;28;20022;-61
2022/09/09 01:20:52;;;;;;;76.22;17.13;;;;;;;;;;4973906;28;20030;-61
2022/09/09 01:23:31;;;;;;;81.97;17.77;;;;;;;;;;4973370;28;20085;-61
2022/09/09 01:26:11;;;;;;;89.63;19.80;;;;;;;;;;4972440;28;20498;-60
2022/09/09 01:28:38;;;;;;;112.55;23.27;;;;;;;;;;4957275;28;20030;-54
2022/09/09 01:31:06;;;;;;;112.25;23.63;;;;;;;;;;4963618;28;20031;-54
2022/09/09 01:33:33;;;;;;;104.15;22.52;;;;;;;;;;4969216;28;20062;-56
2022/09/09 01:36:06;;;;;;;111.78;24.83;;;;;;;;;;4967717;28;20042;-56
2022/09/09 01:38:33;;;;;;;108.32;24.08;;;;;;;;;;4972946;28;20504;-55
2022/09/09 01:41:00;;;;;;;114.47;24.27;;;;;;;;;;4974009;28;20478;-56
2022/09/09 01:43:28;;;;;;;100.63;23.15;;;;;;;;;;4962604;28;20556;-54
2022/09/09 01:45:56;;;;;;;89.80;21.80;;;;;;;;;;4963725;28;20540;-52
2022/09/09 01:48:24;;;;;;;94.50;23.05;;;;;;;;;;4972870;28;20433;-55
2022/09/09 01:50:51;;;;;;;99.80;22.48;;;;;;;;;;4969283;28;20086;-54
2022/09/09 01:53:19;;;;;;;85.30;20.67;;;;;;;;;;4974197;28;20030;-54
2022/09/09 01:55:56;;;;;;;85.55;20.92;;;;;;;;;;4972609;28;20023;-55
2022/09/09 01:58:25;;;;;;;88.50;20.98;;;;;;;;;;4969758;28;20549;-56
2022/09/09 02:00:57;;;;;;;93.88;19.08;;;;;;;;;;4972991;28;20034;-57
2022/09/09 02:03:35;;;;;;;84.35;19.25;;;;;;;;;;4974237;28;20023;-54
2022/09/09 02:06:02;;;;;;;83.32;18.90;;;;;;;;;;4972491;28;20039;-56
2022/09/09 02:08:44;;;;;;;87.63;19.70;;;;;;;;;;4968164;28;20093;-59
2022/09/09 02:11:15;;;;;;;84.28;18.30;;;;;;;;;;4949095;28;20062;-59
2022/09/09 02:13:43;;;;;;;88.15;18.40;;;;;;;;;;4972517;28;20421;-59
2022/09/09 02:16:13;;;;;;;75.53;17.52;;;;;;;;;;4973508;28;20085;-57
2022/09/09 02:18:43;;;;;;;95.20;18.25;;;;;;;;;;4974207;28;20026;-59
2022/09/09 02:21:12;;;;;;;78.07;17.38;;;;;;;;;;4974330;28;20058;-57
2022/09/09 02:23:40;;;;;;;78.32;16.40;;;;;;;;;;4970522;28;20114;-58
2022/09/09 02:26:08;;;;;;;80.72;17.15;;;;;;;;;;4968825;28;20090;-57
2022/09/09 02:28:35;;;;;;;75.85;17.98;;;;;;;;;;4963913;28;20038;-58
2022/09/09 02:31:03;;;;;;;94.35;17.05;;;;;;;;;;4971037;28;20125;-56
2022/09/09 02:33:34;;;;;;;94.05;17.08;;;;;;;;;;4972576;28;20089;-55
2022/09/09 02:36:03;;;;;;;80.20;16.50;;;;;;;;;;4972359;28;20026;-59
2022/09/09 02:38:32;;;;;;;77.72;17.25;;;;;;;;;;4967706;28;20053;-58
2022/09/09 02:40:59;;;;;;;73.22;15.45;;;;;;;;;;4972829;28;20037;-59
2022/09/09 02:43:26;;;;;;;75.35;16.17;;;;;;;;;;4972751;28;20027;-58
2022/09/09 02:46:05;;;;;;;77.35;16.52;;;;;;;;;;4985166;28;20125;-59
2022/09/09 02:48:38;;;;;;;69.97;15.27;;;;;;;;;;4982657;28;20034;-56
2022/09/09 02:51:27;;;;;;;64.45;14.85;;;;;;;;;;4980941;28;20030;-57
2022/09/09 02:53:54;;;;;;;65.65;14.50;;;;;;;;;;4960707;28;20035;-56
2022/09/09 02:56:23;;;;;;;63.03;14.43;;;;;;;;;;4972851;28;20440;-58
2022/09/09 02:58:51;;;;;;;56.08;14.35;;;;;;;;;;4973265;28;20085;-55
2022/09/09 03:01:18;;;;;;;76.13;14.32;;;;;;;;;;4973199;28;20033;-57
2022/09/09 03:03:46;;;;;;;73.95;14.65;;;;;;;;;;4973401;28;20054;-55
2022/09/09 03:06:14;;;;;;;67.22;15.20;;;;;;;;;;4971923;28;20424;-55
2022/09/09 03:08:41;;;;;;;80.45;15.23;;;;;;;;;;4979905;28;20038;-56
2022/09/09 03:11:09;;;;;;;68.22;14.73;;;;;;;;;;4982498;28;20034;-56
2022/09/09 03:13:37;;;;;;;62.35;14.50;;;;;;;;;;4973266;28;20169;-56
2022/09/09 03:16:05;;;;;;;67.45;14.38;;;;;;;;;;4974024;28;20031;-53
2022/09/09 03:18:32;;;;;;;71.78;14.70;;;;;;;;;;4973884;28;20248;-56
2022/09/09 03:20:59;;;;;;;63.80;14.70;;;;;;;;;;4972679;28;20023;-52
2022/09/09 03:23:26;;;;;;;74.35;14.38;;;;;;;;;;4973851;28;20038;-56
2022/09/09 03:25:56;;;;;;;69.47;13.85;;;;;;;;;;4973797;28;20027;-54
2022/09/09 03:28:24;;;;;;;64.28;14.05;;;;;;;;;;4972842;28;20031;-53
2022/09/09 03:30:51;;;;;;;58.75;13.00;;;;;;;;;;4973778;28;20034;-53
2022/09/09 03:33:18;;;;;;;58.80;13.52;;;;;;;;;;4973733;28;20039;-55
2022/09/09 03:35:48;;;;;;;59.72;12.80;;;;;;;;;;4973713;28;20589;-54
2022/09/09 03:38:15;;;;;;;56.95;13.15;;;;;;;;;;4971261;28;20097;-55
2022/09/09 03:40:49;;;;;;;60.70;13.43;;;;;;;;;;4956242;28;20533;-54
2022/09/09 03:43:16;;;;;;;56.35;13.07;;;;;;;;;;4973783;28;20119;-54
2022/09/09 03:45:47;;;;;;;49.05;12.70;;;;;;;;;;4973488;28;20051;-51
2022/09/09 03:48:15;;;;;;;55.90;12.45;;;;;;;;;;4973524;28;20027;-56
2022/09/09 03:50:48;;;;;;;46.60;11.80;;;;;;;;;;4973570;28;20049;-53
2022/09/09 03:53:16;;;;;;;47.42;12.27;;;;;;;;;;4973703;28;20046;-55
2022/09/09 03:55:47;;;;;;;53.47;13.18;;;;;;;;;;4972234;28;20030;-55
2022/09/09 03:58:20;;;;;;;50.03;12.52;;;;;;;;;;4973374;28;20018;-54
2022/09/09 04:01:03;;;;;;;47.05;11.98;;;;;;;;;;4973702;28;20058;-55
2022/09/09 04:03:30;;;;;;;42.25;11.15;;;;;;;;;;4973479;28;20069;-55
2022/09/09 04:05:58;;;;;;;44.58;11.38;;;;;;;;;;4956310;28;20041;-55
2022/09/09 04:08:26;;;;;;;38.92;11.40;;;;;;;;;;4955958;28;20113;-53
2022/09/09 04:10:53;;;;;;;34.63;10.88;;;;;;;;;;4972307;28;20448;-56
2022/09/09 04:13:21;;;;;;;38.97;11.15;;;;;;;;;;4973363;28;20035;-54
2022/09/09 04:15:55;;;;;;;40.08;10.95;;;;;;;;;;4973303;28;20544;-55
2022/09/09 04:18:22;;;;;;;40.55;10.63;;;;;;;;;;4973395;28;20035;-56
2022/09/09 04:20:50;;;;;;;33.97;10.18;;;;;;;;;;4956136;28;20042;-52
2022/09/09 04:23:21;;;;;;;37.35;10.65;;;;;;;;;;4973498;28;20054;-53
2022/09/09 04:25:58;;;;;;;36.03;10.45;;;;;;;;;;4973358;28;20042;-56
2022/09/09 04:28:27;;;;;;;34.08;9.77;;;;;;;;;;4971446;28;20038;-55
2022/09/09 04:30:54;;;;;;;38.83;10.25;;;;;;;;;;4973223;28;20039;-52
2022/09/09 04:33:21;;;;;;;30.75;9.82;;;;;;;;;;4973345;28;20035;-52
2022/09/09 04:35:49;;;;;;;34.50;10.02;;;;;;;;;;4973319;28;20114;-51
2022/09/09 04:38:17;;;;;;;34.40;10.38;;;;;;;;;;4972865;28;20050;-56
2022/09/09 04:40:47;;;;;;;31.83;10.68;;;;;;;;;;4976786;28;20031;-54
2022/09/09 04:43:14;;;;;;;38.97;10.80;;;;;;;;;;4976696;28;20030;-52
2022/09/09 04:45:42;;;;;;;36.85;9.65;;;;;;;;;;4975552;28;20031;-55
2022/09/09 04:48:09;;;;;;;36.85;9.70;;;;;;;;;;4976604;28;20023;-55
2022/09/09 04:50:36;;;;;;;27.83;9.65;;;;;;;;;;4976335;28;20035;-56
2022/09/09 04:53:04;;;;;;;31.27;9.52;;;;;;;;;;4976536;28;20114;-56
2022/09/09 04:55:32;;;;;;;32.25;9.73;;;;;;;;;;4976569;28;20504;-56
2022/09/09 04:57:59;;;;;;;30.40;10.18;;;;;;;;;;4976582;28;20035;-54
2022/09/09 05:00:26;;;;;;;27.23;8.77;;;;;;;;;;4975091;28;20023;-55
2022/09/09 05:02:53;;;;;;;29.67;9.38;;;;;;;;;;4976486;28;20544;-56
2022/09/09 05:05:20;;;;;;;30.85;9.82;;;;;;;;;;4976528;28;20477;-56
2022/09/09 05:07:48;;;;;;;31.90;9.73;;;;;;;;;;4976413;28;20034;-55
2022/09/09 05:10:16;;;;;;;29.08;9.10;;;;;;;;;;4976289;28;20473;-56
2022/09/09 05:12:43;;;;;;;30.20;8.60;;;;;;;;;;4976609;28;20035;-54
2022/09/09 05:15:11;;;;;;;21.63;8.38;;;;;;;;;;4976419;28;20547;-55
2022/09/09 05:17:38;;;;;;;25.45;8.98;;;;;;;;;;4976119;28;20034;-52
2022/09/09 05:20:05;;;;;;;29.92;8.90;;;;;;;;;;4974878;28;20031;-54
2022/09/09 05:22:33;;;;;;;28.27;8.43;;;;;;;;;;4976318;28;20030;-56
2022/09/09 05:25:01;;;;;;;23.40;8.43;;;;;;;;;;4976265;28;20059;-51
2022/09/09 05:27:28;;;;;;;23.27;8.52;;;;;;;;;;4976018;28;20429;-56
2022/09/09 05:29:58;;;;;;;23.52;8.57;;;;;;;;;;4975933;28;20038;-53
2022/09/09 05:32:25;;;;;;;22.88;8.75;;;;;;;;;;4975830;28;20046;-53
2022/09/09 05:34:52;;;;;;;21.17;8.82;;;;;;;;;;4976008;28;20030;-52
2022/09/09 05:37:19;;;;;;;28.25;9.43;;;;;;;;;;4974554;28;20034;-54
2022/09/09 05:39:46;;;;;;;24.75;8.75;;;;;;;;;;4975632;28;20063;-52
2022/09/09 05:42:13;;;;;;;23.38;8.32;;;;;;;;;;4975930;28;20027;-55
2022/09/09 05:44:42;;;;;;;20.25;8.13;;;;;;;;;;4975836;28;20046;-55
2022/09/09 05:47:09;;;;;;;28.42;8.48;;;;;;;;;;4975631;28;20033;-53
2022/09/09 05:49:36;;;;;;;20.75;8.02;;;;;;;;;;4975518;28;20027;-55
2022/09/09 05:52:03;;;;;;;20.77;8.45;;;;;;;;;;4974900;28;20125;-56
2022/09/09 05:54:31;;;;;;;25.13;8.85;;;;;;;;;;4974129;28;20046;-55
2022/09/09 05:56:58;;;;;;;21.17;8.57;;;;;;;;;;4975455;28;20046;-56
2022/09/09 05:59:25;;;;;;;20.33;8.05;;;;;;;;;;4975588;28;20022;-54
2022/09/09 06:01:52;;;;;;;22.63;8.05;;;;;;;;;;4971511;28;20027;-55
2022/09/09 06:04:22;;;;;;;23.27;8.95;;;;;;;;;;4975443;28;20027;-55
2022/09/09 06:06:49;;;;;;;22.30;8.10;;;;;;;;;;4975215;28;20042;-54
2022/09/09 06:09:16;;;;;;;25.50;8.88;;;;;;;;;;4958334;28;20034;-54
2022/09/09 06:11:43;;;;;;;21.67;9.55;;;;;;;;;;4975292;28;20022;-54
2022/09/09 06:14:10;;;;;;;26.08;8.85;;;;;;;;;;4975299;28;20063;-55
2022/09/09 06:16:37;;;;;;;20.77;9.13;;;;;;;;;;4975210;28;20477;-52
2022/09/09 06:19:04;;;;;;;21.20;9.18;;;;;;;;;;4973958;28;20539;-55
2022/09/09 06:21:33;;;;;;;21.98;10.00;;;;;;;;;;4957779;28;20439;-54
2022/09/09 06:24:00;;;;;;;24.08;10.07;;;;;;;;;;4975029;28;20117;-53
2022/09/09 06:26:28;;;;;;;21.45;9.07;;;;;;;;;;4980970;28;20066;-51
2022/09/09 06:28:57;;;;;;;25.23;10.20;;;;;;;;;;4983545;28;20026;-52
2022/09/09 06:31:25;;;;;;;24.38;10.02;;;;;;;;;;4980282;28;20043;-52
2022/09/09 06:33:54;;;;;;;30.23;11.13;;;;;;;;;;4982422;28;20038;-52
2022/09/09 06:36:26;;;;;;;27.60;10.55;;;;;;;;;;4974389;28;20034;-55
2022/09/09 06:38:53;;;;;;;23.63;9.50;;;;;;;;;;4974425;28;20054;-56
2022/09/09 06:41:21;;;;;;;25.27;9.85;;;;;;;;;;4974774;28;20536;-53
2022/09/09 06:43:48;;;;;;;24.20;9.63;;;;;;;;;;4974709;28;20023;-53
2022/09/09 06:46:21;;;;;;;22.42;9.13;;;;;;;;;;4957419;28;20391;-54
2022/09/09 06:48:48;;;;;;;19.27;8.98;;;;;;;;;;4974499;28;20117;-48
2022/09/09 06:51:17;;;;;;;20.65;9.25;;;;;;;;;;4973180;28;20574;-54
2022/09/09 06:53:45;;;;;;;20.55;9.07;;;;;;;;;;4974420;28;20035;-54
2022/09/09 06:56:12;;;;;;;22.30;8.90;;;;;;;;;;4957209;28;20029;-53
2022/09/09 06:58:46;;;;;;;19.73;8.93;;;;;;;;;;4974487;28;20449;-55
2022/09/09 07:01:14;;;;;;;20.17;8.60;;;;;;;;;;4974460;28;20019;-57
2022/09/09 07:03:42;;;;;;;16.42;8.18;;;;;;;;;;4982391;28;20118;-51
2022/09/09 07:06:14;;;;;;;18.42;8.85;;;;;;;;;;4993666;28;20042;-54
2022/09/09 07:08:41;;;;;;;20.92;8.23;;;;;;;;;;4954910;29;20108;-49
2022/09/09 07:11:09;;;;;;;25.42;8.98;;;;;;;;;;4955170;29;20450;-53
2022/09/09 07:13:36;;;;;;;18.75;8.50;;;;;;;;;;4954939;29;20081;-50
2022/09/09 07:16:10;;;;;;;17.75;8.55;;;;;;;;;;4954856;29;20409;-54
2022/09/09 07:18:37;;;;;;;20.00;8.63;;;;;;;;;;4954842;29;20023;-51
2022/09/09 07:21:04;;;;;;;16.73;7.20;;;;;;;;;;4953583;29;20062;-56
2022/09/09 07:23:31;;;;;;;21.45;8.38;;;;;;;;;;4954866;29;20117;-54
2022/09/09 07:25:59;;;;;;;16.50;7.65;;;;;;;;;;4970606;28;20062;-55
2022/09/09 07:28:27;;;;;;;16.48;7.70;;;;;;;;;;4973981;28;20054;-55
2022/09/09 07:30:55;;;;;;;19.75;7.40;;;;;;;;;;4973954;28;20035;-54
2022/09/09 07:33:23;;;;;;;17.30;7.53;;;;;;;;;;4973850;28;20042;-54
2022/09/09 07:35:51;;;;;;;15.45;7.95;;;;;;;;;;4973883;28;20393;-53
2022/09/09 07:38:18;;;;;;;17.70;7.78;;;;;;;;;;4973671;28;20069;-55
2022/09/09 07:40:45;;;;;;;15.50;7.57;;;;;;;;;;4972606;28;20073;-57
2022/09/09 07:43:12;;;;;;;15.98;7.22;;;;;;;;;;4973775;28;20035;-56
2022/09/09 07:45:41;;;;;;;18.30;7.22;;;;;;;;;;4973920;28;20061;-57
2022/09/09 07:48:08;;;;;;;16.85;6.93;;;;;;;;;;4973584;28;20097;-57
2022/09/09 07:50:35;;;;;;;16.33;7.15;;;;;;;;;;4973682;28;20054;-55
2022/09/09 07:53:04;;;;;;;15.57;7.15;;;;;;;;;;4973818;28;20037;-56
2022/09/09 07:55:31;;;;;;;14.15;6.88;;;;;;;;;;4973709;28;20035;-56
2022/09/09 07:57:58;;;;;;;14.65;7.07;;;;;;;;;;4972388;28;20473;-55
2022/09/09 08:00:27;;;;;;;13.77;6.72;;;;;;;;;;4973822;28;20027;-55
2022/09/09 08:02:54;;;;;;;16.42;7.25;;;;;;;;;;4973597;28;20207;-55
2022/09/09 08:05:22;;;;;;;18.15;7.05;;;;;;;;;;4973586;28;20037;-56
2022/09/09 08:07:49;;;;;;;18.55;7.60;;;;;;;;;;4973675;28;20457;-55
2022/09/09 08:10:17;;;;;;;19.63;7.07;;;;;;;;;;4956212;28;20034;-51
2022/09/09 08:12:44;;;;;;;13.90;6.80;;;;;;;;;;4973608;28;20046;-56
2022/09/09 08:15:12;;;;;;;13.85;6.40;;;;;;;;;;4975732;28;20027;-55
2022/09/09 08:17:39;;;;;;;15.80;7.57;;;;;;;;;;4977258;28;20397;-53
2022/09/09 08:20:06;;;;;;;16.23;6.68;;;;;;;;;;4977466;28;20042;-56
2022/09/09 08:22:34;;;;;;;16.23;7.10;;;;;;;;;;4977371;28;20105;-56
2022/09/09 08:25:02;;;;;;;13.70;7.10;;;;;;;;;;4977201;28;20154;-54
2022/09/09 08:27:29;;;;;;;13.05;6.68;;;;;;;;;;4977014;28;20045;-55
2022/09/09 08:29:56;;;;;;;12.25;6.05;;;;;;;;;;4975924;28;20039;-55
2022/09/09 08:32:23;;;;;;;16.63;6.65;;;;;;;;;;4977089;28;20034;-55
2022/09/09 08:34:51;;;;;;;14.93;6.47;;;;;;;;;;4977100;28;20077;-54
2022/09/09 08:37:19;;;;;;;14.90;7.00;;;;;;;;;;4976840;28;20041;-55
2022/09/09 08:39:48;;;;;;;17.90;6.18;;;;;;;;;;4976675;28;20097;-54
2022/09/09 08:42:21;;;;;;;16.42;6.45;;;;;;;;;;4976958;28;20042;-55
2022/09/09 08:44:48;;;;;;;12.70;6.32;;;;;;;;;;4976904;28;20030;-54
2022/09/09 08:47:21;;;;;;;15.23;6.75;;;;;;;;;;4975656;28;20031;-55
2022/09/09 08:49:55;;;;;;;15.20;6.35;;;;;;;;;;4976874;28;20089;-55
2022/09/09 08:52:32;;;;;;;15.15;6.65;;;;;;;;;;4976486;28;20504;-56
2022/09/09 08:55:04;;;;;;;11.38;6.00;;;;;;;;;;4976706;28;20090;-56
2022/09/09 08:57:32;;;;;;;17.85;7.03;;;;;;;;;;4976734;28;20486;-56
2022/09/09 08:59:59;;;;;;;11.52;6.07;;;;;;;;;;4976762;28;20023;-57
2022/09/09 09:02:40;;;;;;;12.35;5.43;;;;;;;;;;4975519;28;20552;-56
2022/09/09 09:05:07;;;;;;;12.07;5.97;;;;;;;;;;4976622;28;20059;-55
2022/09/09 09:07:50;;;;;;;14.88;6.28;;;;;;;;;;4976477;28;20023;-57
2022/09/09 09:10:20;;;;;;;10.13;5.65;;;;;;;;;;4976494;28;20034;-57
2022/09/09 09:12:47;;;;;;;13.10;6.28;;;;;;;;;;4976430;28;20027;-56
2022/09/09 09:15:17;;;;;;;11.48;5.68;;;;;;;;;;4976370;28;20023;-56
2022/09/09 09:17:44;;;;;;;13.52;5.90;;;;;;;;;;4976313;28;20101;-56
2022/09/09 09:20:16;;;;;;;10.82;5.55;;;;;;;;;;4975108;28;20027;-54
2022/09/09 09:22:50;;;;;;;11.07;5.70;;;;;;;;;;4976155;28;20038;-50
2022/09/09 09:25:24;;;;;;;12.40;5.85;;;;;;;;;;4975007;28;20026;-54
2022/09/09 09:27:54;;;;;;;11.20;5.50;;;;;;;;;;4976011;28;20027;-50
2022/09/09 09:30:22;;;;;;;9.55;5.13;;;;;;;;;;4976009;28;20031;-52
2022/09/09 09:33:15;;;;;;;12.07;5.45;;;;;;;;;;4975999;28;20027;-55
2022/09/09 09:35:42;;;;;;;11.25;5.38;;;;;;;;;;4943880;28;20050;-52
2022/09/09 09:38:17;;;;;;;14.68;5.70;;;;;;;;;;4955108;29;20406;-50
2022/09/09 09:40:51;;;;;;;12.40;5.70;;;;;;;;;;4956630;28;20066;-54
2022/09/09 09:43:25;;;;;;;11.68;5.38;;;;;;;;;;4956585;29;20035;-50
2022/09/09 09:45:52;;;;;;;10.90;5.28;;;;;;;;;;4956436;28;20027;-55
2022/09/09 09:48:19;;;;;;;10.75;4.75;;;;;;;;;;4956314;29;20073;-55
2022/09/09 09:50:55;;;;;;;10.20;4.90;;;;;;;;;;4956350;28;20051;-49
2022/09/09 09:53:26;;;;;;;10.05;5.28;;;;;;;;;;4955130;29;20032;-50
2022/09/09 09:55:58;;;;;;;12.83;5.30;;;;;;;;;;4956395;29;20031;-49
2022/09/09 09:58:27;;;;;;;11.95;5.10;;;;;;;;;;4956249;29;20024;-48
2022/09/09 10:00:54;;;;;;;12.82;5.22;;;;;;;;;;4956211;28;20055;-50
2022/09/09 10:03:29;;;;;;;13.07;4.82;;;;;;;;;;4956257;29;20019;-50
2022/09/09 10:05:57;;;;;;;11.85;5.60;;;;;;;;;;4956133;29;20367;-49
2022/09/09 10:08:28;;;;;;;10.15;5.00;;;;;;;;;;4955837;28;20027;-48
2022/09/09 10:10:58;;;;;;;10.20;4.70;;;;;;;;;;4954654;29;20500;-49
2022/09/09 10:13:40;;;;;;;11.60;5.00;;;;;;;;;;4955953;29;20035;-49
2022/09/09 10:16:15;;;;;;;11.60;4.88;;;;;;;;;;4955844;29;20390;-50
2022/09/09 10:18:51;;;;;;;9.43;4.40;;;;;;;;;;4955822;29;20031;-49
2022/09/09 10:21:45;;;;;;;12.95;4.30;;;;;;;;;;4955713;29;20513;-49
2022/09/09 10:24:32;;;;;;;10.80;4.40;;;;;;;;;;4955770;29;20035;-51
2022/09/09 10:27:16;;;;;;;9.73;4.15;;;;;;;;;;4955597;29;20031;-53
2022/09/09 10:29:59;;;;;;;13.77;4.50;;;;;;;;;;4955647;29;20043;-51
2022/09/09 10:32:28;;;;;;;11.73;4.40;;;;;;;;;;4955506;28;20129;-49
2022/09/09 10:35:11;;;;;;;8.32;4.30;;;;;;;;;;4955557;29;20023;-50
2022/09/09 10:37:44;;;;;;;6.45;3.80;;;;;;;;;;4955155;28;20053;-50
2022/09/09 10:40:25;;;;;;;9.80;4.00;;;;;;;;;;4974789;28;20544;-56
2022/09/09 10:42:58;;;;;;;9.00;4.20;;;;;;;;;;4973495;28;20515;-53
2022/09/09 10:45:33;;;;;;;9.30;3.88;;;;;;;;;;4974591;28;20575;-48
2022/09/09 10:48:10;;;;;;;9.70;4.10;;;;;;;;;;4974495;28;20125;-49
2022/09/09 10:50:55;;;;;;;9.63;3.72;;;;;;;;;;4974478;28;20035;-55
2022/09/09 10:53:42;;;;;;;11.00;4.03;;;;;;;;;;4974368;28;20162;-55
2022/09/09 10:56:14;;;;;;;9.82;4.20;;;;;;;;;;4974347;28;20035;-54
2022/09/09 10:58:49;;;;;;;8.27;3.60;;;;;;;;;;4955736;28;20039;-56
2022/09/09 11:01:19;;;;;;;7.45;3.65;;;;;;;;;;4956081;28;20380;-52
2022/09/09 11:03:49;;;;;;;13.82;3.80;;;;;;;;;;4973807;28;20038;-54
2022/09/09 11:06:19;;;;;;;14.25;3.83;;;;;;;;;;4973734;28;20556;-57
2022/09/09 11:08:47;;;;;;;8.30;3.40;;;;;;;;;;4974262;28;20027;-48
2022/09/09 11:11:16;;;;;;;9.35;3.63;;;;;;;;;;4973577;28;20121;-57
2022/09/09 11:13:54;;;;;;;11.73;3.90;;;;;;;;;;4972702;28;20401;-56
2022/09/09 11:16:31;;;;;;;12.60;4.13;;;;;;;;;;4986021;28;20033;-56
2022/09/09 11:19:25;;;;;;;9.05;3.90;;;;;;;;;;4993444;28;20415;-56
2022/09/09 11:21:54;;;;;;;13.55;3.95;;;;;;;;;;4932449;28;20059;-56
2022/09/09 11:24:21;;;;;;;14.77;4.20;;;;;;;;;;4977845;28;20031;-53
2022/09/09 11:26:53;;;;;;;9.70;4.15;;;;;;;;;;4979682;28;20386;-54
2022/09/09 11:29:23;;;;;;;10.82;3.78;;;;;;;;;;4984795;28;20042;-55
2022/09/09 11:31:56;;;;;;;12.55;3.92;;;;;;;;;;4958412;28;20046;-54
2022/09/09 11:34:35;;;;;;;10.52;3.67;;;;;;;;;;4972329;28;20045;-56
2022/09/09 11:37:21;;;;;;;13.82;4.80;;;;;;;;;;4980549;28;20035;-52
2022/09/09 11:40:05;;;;;;;13.30;4.15;;;;;;;;;;4982055;28;20047;-56
2022/09/09 11:42:32;;;;;;;14.07;4.05;;;;;;;;;;4983230;28;20034;-49
2022/09/09 11:45:09;;;;;;;12.57;4.05;;;;;;;;;;4986175;28;20038;-56
2022/09/09 11:47:36;;;;;;;16.02;4.40;;;;;;;;;;4973073;28;20108;-54
2022/09/09 11:50:15;;;;;;;17.10;5.35;;;;;;;;;;4972700;28;20031;-52
2022/09/09 11:52:45;;;;;;;15.75;5.00;;;;;;;;;;4970851;28;20064;-54
2022/09/09 11:55:29;;;;;;;17.17;5.55;;;;;;;;;;4974047;28;20037;-53
2022/09/09 11:58:22;;;;;;;11.73;5.55;;;;;;;;;;4975835;28;20026;-50
2022/09/09 12:00:50;;;;;;;22.98;6.03;;;;;;;;;;4973311;28;20039;-54
2022/09/09 12:03:35;;;;;;;67.00;8.13;;;;;;;;;;4974551;28;20073;-51
2022/09/09 12:06:22;;;;;;;28.02;6.53;;;;;;;;;;4973026;28;20046;-59
2022/09/09 12:08:54;;;;;;;31.10;6.47;;;;;;;;;;4957318;28;20066;-58
2022/09/09 12:11:30;;;;;;;26.50;6.70;;;;;;;;;;4969885;28;20027;-56
2022/09/09 12:13:59;;;;;;;19.95;6.30;;;;;;;;;;4979284;28;20121;-51
2022/09/09 12:16:44;;;;;;;22.92;6.55;;;;;;;;;;4986521;28;20097;-56
2022/09/09 12:19:21;;;;;;;23.23;6.28;;;;;;;;;;4972664;28;20034;-52
2022/09/09 12:22:23;;;;;;;23.75;6.88;;;;;;;;;;4972668;28;20026;-48
2022/09/09 12:24:57;;;;;;;28.08;6.47;;;;;;;;;;4911188;29;20538;-53
2022/09/09 12:27:27;;;;;;;27.33;7.03;;;;;;;;;;4967519;28;20061;-53
2022/09/09 12:30:15;;;;;;;24.13;6.93;;;;;;;;;;4971544;28;20126;-47
2022/09/09 12:32:44;;;;;;;22.15;6.38;;;;;;;;;;4973082;28;20106;-52
2022/09/09 12:35:27;;;;;;;18.65;6.50;;;;;;;;;;4971583;28;20031;-54
2022/09/09 12:37:57;;;;;;;22.02;6.22;;;;;;;;;;4971479;28;20381;-53
2022/09/09 12:40:34;;;;;;;21.38;6.07;;;;;;;;;;4980722;28;20049;-51
2022/09/09 12:43:02;;;;;;;27.25;6.28;;;;;;;;;;4984902;28;20661;-52
2022/09/09 12:45:33;;;;;;;20.38;5.30;;;;;;;;;;4969269;28;20023;-57
2022/09/09 12:48:00;;;;;;;30.40;5.72;;;;;;;;;;4971409;28;20508;-53
2022/09/09 12:50:29;;;;;;;25.70;6.38;;;;;;;;;;4971416;28;20031;-49
2022/09/09 12:53:00;;;;;;;22.30;5.75;;;;;;;;;;4972452;28;20089;-59
2022/09/09 12:55:33;;;;;;;24.67;6.93;;;;;;;;;;4974124;28;20102;-50
2022/09/09 12:58:00;;;;;;;26.83;6.20;;;;;;;;;;4971129;28;20038;-50
2022/09/09 13:00:28;;;;;;;20.75;6.18;;;;;;;;;;4973810;28;20038;-48
2022/09/09 13:03:00;;;;;;;20.73;5.53;;;;;;;;;;4975701;28;20089;-51
2022/09/09 13:05:37;;;;;;;24.88;5.03;;;;;;;;;;4975589;28;20035;-51
2022/09/09 13:08:05;;;;;;;18.17;5.30;;;;;;;;;;4974200;28;20106;-49
2022/09/09 13:10:38;;;;;;;20.83;4.97;;;;;;;;;;4983741;28;20026;-48
2022/09/09 13:13:13;;;;;;;21.63;5.50;;;;;;;;;;4975940;28;20512;-49
2022/09/09 13:15:40;;;;;;;30.73;5.68;;;;;;;;;;4975886;28;20031;-53
2022/09/09 13:18:12;;;;;;;28.60;5.75;;;;;;;;;;4974415;28;20031;-56
2022/09/09 13:20:39;;;;;;;36.60;6.18;;;;;;;;;;4975465;28;20031;-53
2022/09/09 13:23:06;;;;;;;53.15;7.07;;;;;;;;;;4975004;28;20030;-55
2022/09/09 13:25:34;;;;;;;32.90;5.63;;;;;;;;;;4975079;28;20050;-55
2022/09/09 13:28:03;;;;;;;32.38;6.32;;;;;;;;;;4971277;28;20092;-54
2022/09/09 13:30:36;;;;;;;36.35;6.53;;;;;;;;;;4972873;28;20622;-49
2022/09/09 13:33:04;;;;;;;23.10;5.10;;;;;;;;;;4973062;28;20101;-55
2022/09/09 13:35:31;;;;;;;47.95;6.90;;;;;;;;;;4975363;28;20046;-51
2022/09/09 13:37:59;;;;;;;38.13;6.65;;;;;;;;;;4974284;28;20026;-55
2022/09/09 13:40:27;;;;;;;41.17;6.38;;;;;;;;;;4973386;28;20037;-52
2022/09/09 13:42:56;;;;;;;42.55;6.60;;;;;;;;;;4973196;28;20027;-56
2022/09/09 13:45:26;;;;;;;37.38;6.03;;;;;;;;;;4973320;28;20037;-54
2022/09/09 13:47:55;;;;;;;36.45;5.90;;;;;;;;;;4969353;28;20077;-54
2022/09/09 13:50:29;;;;;;;48.63;7.28;;;;;;;;;;4954986;28;20463;-57
2022/09/09 13:53:00;;;;;;;36.55;6.15;;;;;;;;;;4971997;28;20037;-55
2022/09/09 13:55:31;;;;;;;51.83;7.57;;;;;;;;;;4974304;28;20057;-52
2022/09/09 13:58:01;;;;;;;52.85;7.07;;;;;;;;;;4974489;28;20023;-57
2022/09/09 14:00:33;;;;;;;45.20;6.57;;;;;;;;;;4974733;28;20022;-57
2022/09/09 14:03:03;;;;;;;40.60;6.97;;;;;;;;;;4970586;28;20038;-51
2022/09/09 14:05:32;;;;;;;35.00;6.07;;;;;;;;;;4973383;28;20047;-53
2022/09/09 14:08:02;;;;;;;50.95;7.68;;;;;;;;;;4979616;23;20057;-55
2022/09/09 14:10:29;;;;;;;43.85;6.68;;;;;;;;;;4965558;28;20038;-49
2022/09/09 14:12:56;;;;;;;55.28;7.32;;;;;;;;;;4962015;28;20060;-55
2022/09/09 14:15:23;;;;;;;45.45;6.53;;;;;;;;;;4965793;28;20015;-54
2022/09/09 14:17:52;;;;;;;51.80;7.43;;;;;;;;;;4958532;28;20054;-53
2022/09/09 14:20:19;;;;;;;51.53;7.72;;;;;;;;;;4973978;28;20113;-52
2022/09/09 14:22:46;;;;;;;59.85;8.13;;;;;;;;;;4973705;28;20080;-58
2022/09/09 14:25:13;;;;;;;53.80;7.80;;;;;;;;;;4972556;28;20066;-52
2022/09/09 14:27:40;;;;;;;45.78;7.63;;;;;;;;;;4966856;28;20120;-53
2022/09/09 14:30:07;;;;;;;53.15;7.93;;;;;;;;;;4964935;28;20038;-52
2022/09/09 14:32:34;;;;;;;39.40;6.47;;;;;;;;;;4962996;28;20042;-53
2022/09/09 14:35:02;;;;;;;41.22;6.72;;;;;;;;;;4966594;28;20019;-57
2022/09/09 14:37:30;;;;;;;42.35;7.22;;;;;;;;;;4968564;28;20074;-55
2022/09/09 14:39:58;;;;;;;38.83;6.80;;;;;;;;;;4974302;28;20027;-54
2022/09/09 14:42:26;;;;;;;37.80;6.05;;;;;;;;;;4966888;28;20027;-52
2022/09/09 14:44:53;;;;;;;35.95;6.65;;;;;;;;;;4966032;28;20039;-53
2022/09/09 14:47:20;;;;;;;48.28;6.80;;;;;;;;;;4971780;28;20449;-48